Time;durP1;ratioP1;P1;durP2;ratioP2;P2;SDS_P1;SDS_P2;PMS_P1;PMS_P2;Temp;Humidity;BMP_temperature;BMP_pressure;BME280_temperature;BME280_humidity;BME280_pressure;Samples;Min_cycle;Max_cycle;Signal;HPM_P1;HPM_P2
2023/01/20 00:00:38;;;;;;;11.07;6.07;;;;;;;;;;5076037;28;20423;-82
2023/01/20 00:03:04;;;;;;;13.73;7.07;;;;;;;;;;5078358;28;20423;-81
2023/01/20 00:05:30;;;;;;;15.55;8.15;;;;;;;;;;5088898;28;20486;-82
2023/01/20 00:07:56;;;;;;;17.77;8.50;;;;;;;;;;5099046;28;20422;-82
2023/01/20 00:10:22;;;;;;;21.17;10.25;;;;;;;;;;5083017;28;20822;-82
2023/01/20 00:12:48;;;;;;;19.65;9.90;;;;;;;;;;5072665;28;20403;-82
2023/01/20 00:15:14;;;;;;;23.23;11.23;;;;;;;;;;5065619;28;20419;-82
2023/01/20 00:17:40;;;;;;;26.95;11.40;;;;;;;;;;5073008;28;20407;-82
2023/01/20 00:20:07;;;;;;;28.38;12.63;;;;;;;;;;5072894;28;20400;-82
2023/01/20 00:22:33;;;;;;;34.97;14.50;;;;;;;;;;5089390;28;20423;-82
2023/01/20 00:24:59;;;;;;;36.33;14.45;;;;;;;;;;5097539;28;20417;-82
2023/01/20 00:27:25;;;;;;;37.47;15.13;;;;;;;;;;5072263;28;20905;-82
2023/01/20 00:29:51;;;;;;;31.38;14.70;;;;;;;;;;5075093;28;20413;-82
2023/01/20 00:32:18;;;;;;;32.10;14.32;;;;;;;;;;5092323;28;20434;-77
2023/01/20 00:34:44;;;;;;;31.85;14.40;;;;;;;;;;5109490;28;20413;-77
2023/01/20 00:37:10;;;;;;;30.05;14.65;;;;;;;;;;5069605;28;20435;-77
2023/01/20 00:39:36;;;;;;;29.35;14.48;;;;;;;;;;5120229;27;20504;-77
2023/01/20 00:42:02;;;;;;;54.00;19.43;;;;;;;;;;5091964;28;20440;-76
2023/01/20 00:44:28;;;;;;;91.90;17.70;;;;;;;;;;5085261;28;20418;-76
2023/01/20 00:46:54;;;;;;;29.67;14.95;;;;;;;;;;5073379;28;20430;-77
2023/01/20 00:49:20;;;;;;;30.13;13.73;;;;;;;;;;5090838;28;20441;-77
2023/01/20 00:51:46;;;;;;;28.17;14.35;;;;;;;;;;5070363;28;20422;-77
2023/01/20 00:54:12;;;;;;;26.90;13.25;;;;;;;;;;5089610;28;20413;-76
2023/01/20 00:56:38;;;;;;;30.08;13.90;;;;;;;;;;5074215;28;20894;-77
2023/01/20 00:59:04;;;;;;;100.20;19.52;;;;;;;;;;5090378;28;20761;-77
2023/01/20 01:01:30;;;;;;;25.95;13.00;;;;;;;;;;5073600;28;20418;-77
2023/01/20 01:03:56;;;;;;;24.70;12.97;;;;;;;;;;5075077;28;20512;-76
2023/01/20 01:06:23;;;;;;;26.17;13.18;;;;;;;;;;5092166;28;20394;-77
2023/01/20 01:08:49;;;;;;;30.20;15.00;;;;;;;;;;5074575;28;20862;-76
2023/01/20 01:11:15;;;;;;;273.10;28.73;;;;;;;;;;5074227;28;20422;-77
2023/01/20 01:13:41;;;;;;;26.70;13.82;;;;;;;;;;5088559;28;20417;-77
2023/01/20 01:16:11;;;;;;;25.73;13.85;;;;;;;;;;5087373;28;20449;-77
2023/01/20 01:18:37;;;;;;;28.45;14.48;;;;;;;;;;5066327;28;20426;-77
2023/01/20 01:21:07;;;;;;;90.47;19.58;;;;;;;;;;5090506;28;20429;-77
2023/01/20 01:23:33;;;;;;;42.92;15.68;;;;;;;;;;5090609;28;20457;-77
2023/01/20 01:26:00;;;;;;;25.75;13.65;;;;;;;;;;5087224;28;20418;-77
2023/01/20 01:28:26;;;;;;;27.98;13.82;;;;;;;;;;5100385;28;20434;-77
2023/01/20 01:30:52;;;;;;;41.60;15.52;;;;;;;;;;5087859;28;20483;-77
2023/01/20 01:33:18;;;;;;;30.13;15.25;;;;;;;;;;5101406;28;20415;-77
2023/01/20 01:35:53;;;;;;;31.88;15.07;;;;;;;;;;5074174;28;20491;-77
2023/01/20 01:38:19;;;;;;;28.70;14.10;;;;;;;;;;5065816;28;20415;-77
2023/01/20 01:40:52;;;;;;;28.75;14.57;;;;;;;;;;5093839;28;20445;-77
2023/01/20 01:43:28;;;;;;;28.25;14.45;;;;;;;;;;5102432;28;20486;-77
2023/01/20 01:45:55;;;;;;;32.80;15.73;;;;;;;;;;5072231;28;20552;-77
2023/01/20 01:48:43;;;;;;;30.00;15.02;;;;;;;;;;5071096;28;20491;-77
2023/01/20 01:51:13;;;;;;;29.77;14.83;;;;;;;;;;5076318;28;20978;-77
2023/01/20 01:53:52;;;;;;;27.00;14.63;;;;;;;;;;5089004;28;20474;-77
2023/01/20 01:56:19;;;;;;;28.10;14.95;;;;;;;;;;5073097;28;20425;-77
2023/01/20 01:58:47;;;;;;;76.45;18.60;;;;;;;;;;5090918;28;20406;-77
2023/01/20 02:01:13;;;;;;;31.03;15.70;;;;;;;;;;5088940;28;20426;-77
2023/01/20 02:04:00;;;;;;;26.52;14.75;;;;;;;;;;5073146;28;20505;-77
2023/01/20 02:06:29;;;;;;;28.35;15.30;;;;;;;;;;5074885;28;21157;-77
2023/01/20 02:08:55;;;;;;;29.07;15.50;;;;;;;;;;5088094;28;20421;-77
2023/01/20 02:11:21;;;;;;;29.27;15.40;;;;;;;;;;5073422;28;20413;-77
2023/01/20 02:13:47;;;;;;;77.23;18.77;;;;;;;;;;5072101;28;20429;-77
2023/01/20 02:16:22;;;;;;;29.02;15.82;;;;;;;;;;5073292;28;20418;-77
2023/01/20 02:18:48;;;;;;;29.30;15.35;;;;;;;;;;5085166;28;20413;-77
2023/01/20 02:21:14;;;;;;;30.33;16.08;;;;;;;;;;5071480;28;20422;-77
2023/01/20 02:23:40;;;;;;;31.25;16.38;;;;;;;;;;5090733;28;20429;-79
2023/01/20 02:26:22;;;;;;;31.20;15.95;;;;;;;;;;5090007;28;20404;-79
2023/01/20 02:29:16;;;;;;;29.20;16.38;;;;;;;;;;5068910;28;20416;-79
2023/01/20 02:32:00;;;;;;;30.02;16.75;;;;;;;;;;5087974;28;20419;-80
2023/01/20 02:34:32;;;;;;;59.58;19.30;;;;;;;;;;5089340;28;22084;-79
2023/01/20 02:37:04;;;;;;;32.05;17.48;;;;;;;;;;5086841;28;20418;-79
2023/01/20 02:39:34;;;;;;;33.40;17.20;;;;;;;;;;5053640;28;20399;-79
2023/01/20 02:42:08;;;;;;;31.58;17.67;;;;;;;;;;5086251;28;20816;-79
2023/01/20 02:44:54;;;;;;;36.17;17.98;;;;;;;;;;5087334;28;20421;-79
2023/01/20 02:47:20;;;;;;;32.95;18.00;;;;;;;;;;5088217;28;20472;-80
2023/01/20 02:49:46;;;;;;;35.78;18.42;;;;;;;;;;5090568;28;20409;-80
2023/01/20 02:52:15;;;;;;;34.88;19.15;;;;;;;;;;5084204;28;20421;-79
2023/01/20 02:54:44;;;;;;;37.97;19.50;;;;;;;;;;5072000;28;20773;-79
2023/01/20 02:57:11;;;;;;;37.58;19.98;;;;;;;;;;5088801;28;21939;-79
2023/01/20 02:59:40;;;;;;;37.80;19.60;;;;;;;;;;5087564;28;20425;-79
2023/01/20 03:02:09;;;;;;;38.83;20.30;;;;;;;;;;5080187;28;20414;-79
2023/01/20 03:05:05;;;;;;;36.17;19.88;;;;;;;;;;5071976;28;20421;-79
2023/01/20 03:07:32;;;;;;;40.20;21.20;;;;;;;;;;5076680;28;20981;-79
2023/01/20 03:10:01;;;;;;;38.88;21.48;;;;;;;;;;5089444;28;20413;-79
2023/01/20 03:12:40;;;;;;;42.92;21.75;;;;;;;;;;5086855;28;20432;-79
2023/01/20 03:15:06;;;;;;;41.22;21.23;;;;;;;;;;5090250;28;20415;-79
2023/01/20 03:17:33;;;;;;;40.97;21.73;;;;;;;;;;5105483;28;20426;-79
2023/01/20 03:20:00;;;;;;;44.53;22.83;;;;;;;;;;5076997;28;20789;-79
2023/01/20 03:22:30;;;;;;;51.88;24.75;;;;;;;;;;5093163;28;20428;-79
2023/01/20 03:24:56;;;;;;;49.92;24.13;;;;;;;;;;5092269;28;20409;-80
2023/01/20 03:27:22;;;;;;;49.38;25.35;;;;;;;;;;5076308;28;20414;-80
2023/01/20 03:29:48;;;;;;;54.03;25.60;;;;;;;;;;5085003;28;20799;-79
2023/01/20 03:32:14;;;;;;;56.95;25.70;;;;;;;;;;5104403;28;20419;-80
2023/01/20 03:34:42;;;;;;;61.58;26.35;;;;;;;;;;5108531;27;20729;-80
2023/01/20 03:37:09;;;;;;;74.27;28.00;;;;;;;;;;5073214;28;20409;-80
2023/01/20 03:39:38;;;;;;;126.03;31.77;;;;;;;;;;5093348;28;20409;-80
2023/01/20 03:42:20;;;;;;;203.60;35.13;;;;;;;;;;5082623;28;20425;-80
2023/01/20 03:44:49;;;;;;;88.53;29.92;;;;;;;;;;5070107;28;20923;-79
2023/01/20 03:47:15;;;;;;;78.63;29.50;;;;;;;;;;5109042;28;20418;-79
2023/01/20 03:49:47;;;;;;;71.80;28.83;;;;;;;;;;5074226;28;20410;-80
2023/01/20 03:52:21;;;;;;;71.82;28.00;;;;;;;;;;5092876;28;20422;-80
2023/01/20 03:54:50;;;;;;;64.38;26.70;;;;;;;;;;5076351;28;20485;-79
2023/01/20 03:57:18;;;;;;;121.28;30.88;;;;;;;;;;5073811;28;20959;-79
2023/01/20 03:59:46;;;;;;;62.00;27.48;;;;;;;;;;5089328;28;20419;-80
2023/01/20 04:02:12;;;;;;;65.55;27.17;;;;;;;;;;5091451;28;20425;-79
2023/01/20 04:04:39;;;;;;;65.87;25.80;;;;;;;;;;5075258;28;20422;-80
2023/01/20 04:07:06;;;;;;;67.25;26.77;;;;;;;;;;5075760;28;20829;-80
2023/01/20 04:09:35;;;;;;;89.10;27.98;;;;;;;;;;5078756;28;20414;-80
2023/01/20 04:12:01;;;;;;;74.00;26.23;;;;;;;;;;5095957;28;20766;-80
2023/01/20 04:14:27;;;;;;;69.22;26.05;;;;;;;;;;5092555;28;20769;-80
2023/01/20 04:16:55;;;;;;;68.83;25.77;;;;;;;;;;5091652;28;20440;-80
2023/01/20 04:19:21;;;;;;;77.07;26.45;;;;;;;;;;5091649;28;20420;-80
2023/01/20 04:21:49;;;;;;;77.05;26.45;;;;;;;;;;5091466;28;20425;-80
2023/01/20 04:24:26;;;;;;;364.77;46.33;;;;;;;;;;5108003;28;20437;-80
2023/01/20 04:26:52;;;;;;;88.45;26.48;;;;;;;;;;5074247;28;20422;-80
2023/01/20 04:29:18;;;;;;;81.00;27.08;;;;;;;;;;5092647;28;20398;-80
2023/01/20 04:31:44;;;;;;;76.25;25.92;;;;;;;;;;5091936;28;20915;-80
2023/01/20 04:34:16;;;;;;;69.38;25.20;;;;;;;;;;5089943;28;20414;-80
2023/01/20 04:36:42;;;;;;;72.30;24.85;;;;;;;;;;5087744;28;20918;-80
2023/01/20 04:39:09;;;;;;;139.48;30.05;;;;;;;;;;5072375;28;20461;-80
2023/01/20 04:41:35;;;;;;;68.75;25.02;;;;;;;;;;5090264;28;20421;-80
2023/01/20 04:44:01;;;;;;;67.68;25.35;;;;;;;;;;5092449;28;20432;-80
2023/01/20 04:46:27;;;;;;;63.22;24.15;;;;;;;;;;5073926;28;20516;-80
2023/01/20 04:48:53;;;;;;;60.75;23.92;;;;;;;;;;5106999;28;20418;-80
2023/01/20 04:51:19;;;;;;;64.95;24.65;;;;;;;;;;5074491;28;20421;-80
2023/01/20 04:53:45;;;;;;;130.40;28.95;;;;;;;;;;5091134;28;20433;-80
2023/01/20 04:56:12;;;;;;;55.67;22.90;;;;;;;;;;5072688;28;20418;-80
2023/01/20 04:58:38;;;;;;;60.38;23.98;;;;;;;;;;5075651;28;20406;-80
2023/01/20 05:01:04;;;;;;;59.43;23.47;;;;;;;;;;5107899;28;21024;-80
2023/01/20 05:03:30;;;;;;;58.50;24.90;;;;;;;;;;5089614;28;20445;-80
2023/01/20 05:05:56;;;;;;;57.58;23.65;;;;;;;;;;5090811;28;20414;-80
2023/01/20 05:08:22;;;;;;;59.15;24.23;;;;;;;;;;5072559;28;20939;-80
2023/01/20 05:10:49;;;;;;;55.45;24.55;;;;;;;;;;5091810;28;20398;-80
2023/01/20 05:13:15;;;;;;;56.28;23.50;;;;;;;;;;5092043;28;20402;-80
2023/01/20 05:15:42;;;;;;;58.17;23.55;;;;;;;;;;5077702;28;20421;-80
2023/01/20 05:18:08;;;;;;;62.58;24.65;;;;;;;;;;5070745;28;20454;-80
2023/01/20 05:20:34;;;;;;;61.45;23.95;;;;;;;;;;5105878;27;20451;-80
2023/01/20 05:23:00;;;;;;;54.13;23.87;;;;;;;;;;5086015;28;20422;-79
2023/01/20 05:25:26;;;;;;;191.02;33.80;;;;;;;;;;5094487;28;20799;-80
2023/01/20 05:27:52;;;;;;;58.77;24.43;;;;;;;;;;5111259;27;20450;-80
2023/01/20 05:30:18;;;;;;;57.47;24.13;;;;;;;;;;5071269;28;20437;-78
2023/01/20 05:32:45;;;;;;;63.33;25.50;;;;;;;;;;5085150;28;20424;-79
2023/01/20 05:35:11;;;;;;;61.77;25.83;;;;;;;;;;5091622;28;20777;-79
2023/01/20 05:37:37;;;;;;;63.33;27.38;;;;;;;;;;5079837;28;20418;-79
2023/01/20 05:40:03;;;;;;;64.85;28.73;;;;;;;;;;5074402;28;20436;-79
2023/01/20 05:42:31;;;;;;;69.18;26.58;;;;;;;;;;5071493;28;20434;-79
2023/01/20 05:44:58;;;;;;;71.17;28.43;;;;;;;;;;5105565;28;20418;-78
2023/01/20 05:47:24;;;;;;;72.43;28.90;;;;;;;;;;5089859;28;20426;-79
2023/01/20 05:49:50;;;;;;;81.67;29.60;;;;;;;;;;5091017;28;20997;-78
2023/01/20 05:52:16;;;;;;;80.65;30.23;;;;;;;;;;5089325;28;20493;-78
2023/01/20 05:54:42;;;;;;;77.32;28.70;;;;;;;;;;5106280;28;20495;-79
2023/01/20 05:57:08;;;;;;;78.25;28.75;;;;;;;;;;5074154;28;20431;-79
2023/01/20 05:59:34;;;;;;;73.85;29.23;;;;;;;;;;5081441;28;20822;-80
2023/01/20 06:02:00;;;;;;;94.07;30.63;;;;;;;;;;5083005;28;20422;-79
2023/01/20 06:04:26;;;;;;;77.78;29.17;;;;;;;;;;5090741;28;20394;-79
2023/01/20 06:06:52;;;;;;;75.88;30.63;;;;;;;;;;5073297;28;20440;-79
2023/01/20 06:09:19;;;;;;;75.65;28.55;;;;;;;;;;5090716;28;20424;-80
2023/01/20 06:11:45;;;;;;;75.28;30.38;;;;;;;;;;5078229;28;20768;-79
2023/01/20 06:14:11;;;;;;;78.30;30.20;;;;;;;;;;5075265;28;20423;-79
2023/01/20 06:16:37;;;;;;;74.40;30.23;;;;;;;;;;5114940;27;20454;-79
2023/01/20 06:19:03;;;;;;;104.95;32.15;;;;;;;;;;5086580;28;20425;-79
2023/01/20 06:21:29;;;;;;;157.20;34.63;;;;;;;;;;5119580;27;20512;-79
2023/01/20 06:23:55;;;;;;;288.95;44.65;;;;;;;;;;5102568;28;20424;-79
2023/01/20 06:26:21;;;;;;;166.13;36.13;;;;;;;;;;5091318;28;20960;-79
2023/01/20 06:28:47;;;;;;;170.23;34.15;;;;;;;;;;5104290;28;20407;-79
2023/01/20 06:31:14;;;;;;;247.77;44.78;;;;;;;;;;5070235;28;20399;-79
2023/01/20 06:33:40;;;;;;;76.32;30.58;;;;;;;;;;5081105;28;20414;-79
2023/01/20 06:36:07;;;;;;;572.35;68.15;;;;;;;;;;5071446;28;20417;-79
2023/01/20 06:38:34;;;;;;;109.20;32.10;;;;;;;;;;5071770;28;20446;-80
2023/01/20 06:41:01;;;;;;;139.23;33.53;;;;;;;;;;5070573;28;20411;-76
2023/01/20 06:43:28;;;;;;;258.47;39.43;;;;;;;;;;5078284;28;20422;-76
2023/01/20 06:45:59;;;;;;;176.55;33.70;;;;;;;;;;5069691;28;20425;-77
2023/01/20 06:48:25;;;;;;;300.23;46.90;;;;;;;;;;5069916;28;20533;-76
2023/01/20 06:50:51;;;;;;;299.27;42.25;;;;;;;;;;5092284;28;20409;-79
2023/01/20 06:53:17;;;;;;;483.30;59.23;;;;;;;;;;5111675;28;20433;-81
2023/01/20 06:55:43;;;;;;;141.27;35.83;;;;;;;;;;5094259;28;20417;-80
2023/01/20 06:58:09;;;;;;;271.58;42.38;;;;;;;;;;5094653;28;20398;-80
2023/01/20 07:00:35;;;;;;;107.95;32.17;;;;;;;;;;5093831;28;20412;-80
2023/01/20 07:03:01;;;;;;;284.52;44.70;;;;;;;;;;5089848;28;20423;-81
2023/01/20 07:05:27;;;;;;;70.10;28.63;;;;;;;;;;5096032;28;20768;-80
2023/01/20 07:07:53;;;;;;;63.53;28.20;;;;;;;;;;5074382;28;20469;-80
2023/01/20 07:10:19;;;;;;;61.33;27.20;;;;;;;;;;5075287;28;20418;-80
2023/01/20 07:12:45;;;;;;;62.60;27.52;;;;;;;;;;5093446;28;20413;-80
2023/01/20 07:15:11;;;;;;;141.40;32.72;;;;;;;;;;5125310;27;20418;-81
2023/01/20 07:17:37;;;;;;;179.65;35.05;;;;;;;;;;5094185;28;20425;-80
2023/01/20 07:20:04;;;;;;;59.65;27.80;;;;;;;;;;5076930;28;20417;-81
2023/01/20 07:22:30;;;;;;;64.88;28.77;;;;;;;;;;5075448;28;20429;-80
2023/01/20 07:24:56;;;;;;;60.47;28.45;;;;;;;;;;5057320;28;20403;-80
2023/01/20 07:27:22;;;;;;;64.37;28.70;;;;;;;;;;5090012;28;20985;-81
2023/01/20 07:29:48;;;;;;;64.95;29.50;;;;;;;;;;5088600;28;20770;-81
2023/01/20 07:32:14;;;;;;;62.83;30.17;;;;;;;;;;5076771;28;20931;-81
2023/01/20 07:34:40;;;;;;;60.25;27.17;;;;;;;;;;5090279;28;20412;-81
2023/01/20 07:37:06;;;;;;;62.38;29.55;;;;;;;;;;5090069;28;20728;-80
2023/01/20 07:39:32;;;;;;;64.85;31.15;;;;;;;;;;5089775;28;20428;-80
2023/01/20 07:41:58;;;;;;;60.65;29.35;;;;;;;;;;5089917;28;20940;-81
2023/01/20 07:44:24;;;;;;;60.95;29.25;;;;;;;;;;5071744;28;20418;-77
2023/01/20 07:46:50;;;;;;;96.60;32.75;;;;;;;;;;5107877;27;20423;-77
2023/01/20 07:49:17;;;;;;;65.30;29.88;;;;;;;;;;5105326;28;20446;-77
2023/01/20 07:51:43;;;;;;;62.80;29.63;;;;;;;;;;5096404;28;20949;-77
2023/01/20 07:54:10;;;;;;;59.75;30.52;;;;;;;;;;5083193;28;20445;-77
2023/01/20 07:56:36;;;;;;;59.85;30.05;;;;;;;;;;5086535;28;20413;-76
2023/01/20 07:59:02;;;;;;;60.40;31.27;;;;;;;;;;5070675;28;20418;-76
2023/01/20 08:01:30;;;;;;;64.80;31.58;;;;;;;;;;5071767;28;20422;-76
2023/01/20 08:03:59;;;;;;;82.95;32.20;;;;;;;;;;5091989;28;20429;-76
2023/01/20 08:06:25;;;;;;;63.50;29.77;;;;;;;;;;5088620;28;20422;-76
2023/01/20 08:08:52;;;;;;;68.85;30.65;;;;;;;;;;5087889;28;20410;-76
2023/01/20 08:11:19;;;;;;;65.60;31.52;;;;;;;;;;5083495;28;20989;-76
2023/01/20 08:13:45;;;;;;;67.82;30.77;;;;;;;;;;5088105;28;20486;-75
2023/01/20 08:16:13;;;;;;;69.88;30.75;;;;;;;;;;5091022;28;20414;-77
2023/01/20 08:18:39;;;;;;;67.95;31.27;;;;;;;;;;5071505;28;20448;-76
2023/01/20 08:21:07;;;;;;;68.17;31.67;;;;;;;;;;5102613;28;20418;-78
2023/01/20 08:23:36;;;;;;;63.05;30.77;;;;;;;;;;5087030;28;20426;-76
2023/01/20 08:26:04;;;;;;;252.63;42.90;;;;;;;;;;5073177;28;20493;-76
2023/01/20 08:28:31;;;;;;;93.85;33.28;;;;;;;;;;5089495;28;20406;-78
2023/01/20 08:31:11;;;;;;;62.75;31.35;;;;;;;;;;5074755;28;20490;-76
2023/01/20 08:33:37;;;;;;;63.22;31.70;;;;;;;;;;5087945;28;20422;-76
2023/01/20 08:36:07;;;;;;;58.57;29.67;;;;;;;;;;5075266;28;20410;-75
2023/01/20 08:38:34;;;;;;;64.68;31.25;;;;;;;;;;5073844;28;20860;-75
2023/01/20 08:41:00;;;;;;;100.07;33.25;;;;;;;;;;5089173;28;20785;-75
2023/01/20 08:43:26;;;;;;;65.75;30.23;;;;;;;;;;5087337;28;20422;-75
2023/01/20 08:46:02;;;;;;;62.80;31.17;;;;;;;;;;5080394;28;20792;-75
2023/01/20 08:48:29;;;;;;;84.63;33.05;;;;;;;;;;5071987;28;20475;-75
2023/01/20 08:50:55;;;;;;;63.75;30.30;;;;;;;;;;5075687;28;20451;-75
2023/01/20 08:53:21;;;;;;;61.60;29.73;;;;;;;;;;5092814;28;20537;-75
2023/01/20 08:55:54;;;;;;;63.22;30.65;;;;;;;;;;5120184;27;20417;-76
2023/01/20 08:58:20;;;;;;;63.63;30.10;;;;;;;;;;5090788;28;20432;-76
2023/01/20 09:00:46;;;;;;;59.78;29.80;;;;;;;;;;5074459;28;20446;-76
2023/01/20 09:03:12;;;;;;;57.78;30.45;;;;;;;;;;5071613;28;20481;-75
2023/01/20 09:05:38;;;;;;;62.50;29.98;;;;;;;;;;5071674;28;20416;-75
2023/01/20 09:08:05;;;;;;;100.63;32.72;;;;;;;;;;5089062;28;20417;-75
2023/01/20 09:10:34;;;;;;;126.78;34.72;;;;;;;;;;5118729;27;20411;-75
2023/01/20 09:13:00;;;;;;;62.38;29.42;;;;;;;;;;5104354;28;20418;-78
2023/01/20 09:15:26;;;;;;;62.93;30.47;;;;;;;;;;5063772;28;20498;-77
2023/01/20 09:17:52;;;;;;;64.13;30.70;;;;;;;;;;5072117;28;20449;-77
2023/01/20 09:20:19;;;;;;;68.03;31.03;;;;;;;;;;5072804;28;20425;-77
2023/01/20 09:22:45;;;;;;;87.57;31.90;;;;;;;;;;5065016;28;20422;-77
2023/01/20 09:25:11;;;;;;;60.42;28.73;;;;;;;;;;5071911;28;20416;-78
2023/01/20 09:27:37;;;;;;;61.38;28.48;;;;;;;;;;5071640;28;20414;-78
2023/01/20 09:30:04;;;;;;;60.63;28.52;;;;;;;;;;5098283;28;20439;-77
2023/01/20 09:32:31;;;;;;;62.33;27.73;;;;;;;;;;5101861;28;20523;-80
2023/01/20 09:34:57;;;;;;;63.00;28.40;;;;;;;;;;5069617;28;20758;-82
2023/01/20 09:46:03;;;;;;;60.27;29.63;;;;;;;;;;5105121;28;20965;-82
2023/01/20 09:54:48;;;;;;;59.70;28.08;;;;;;;;;;5027528;28;20424;-82
2023/01/20 09:57:14;;;;;;;59.42;28.58;;;;;;;;;;5088762;28;20505;-81
2023/01/20 09:59:44;;;;;;;64.50;27.80;;;;;;;;;;5070646;28;20437;-81
2023/01/20 10:02:16;;;;;;;60.15;28.27;;;;;;;;;;5114974;27;20858;-81
2023/01/20 10:04:58;;;;;;;61.25;30.23;;;;;;;;;;5088510;28;22330;-81
2023/01/20 10:07:31;;;;;;;142.20;37.28;;;;;;;;;;5077599;28;20420;-81
2023/01/20 10:10:08;;;;;;;65.20;29.23;;;;;;;;;;5117921;27;20414;-81
2023/01/20 10:12:41;;;;;;;67.30;31.00;;;;;;;;;;5098637;28;20534;-81
2023/01/20 10:15:11;;;;;;;67.45;30.38;;;;;;;;;;5120259;27;20568;-81
2023/01/20 10:17:48;;;;;;;72.18;31.50;;;;;;;;;;5070770;28;20517;-81
2023/01/20 10:20:20;;;;;;;63.85;30.60;;;;;;;;;;5090160;28;20405;-80
2023/01/20 10:22:46;;;;;;;67.53;30.70;;;;;;;;;;5089897;28;20430;-81
2023/01/20 10:25:35;;;;;;;60.03;28.52;;;;;;;;;;5084816;28;20443;-80
2023/01/20 10:28:06;;;;;;;134.93;35.40;;;;;;;;;;5074717;28;20922;-81
2023/01/20 10:30:34;;;;;;;82.82;32.10;;;;;;;;;;5085426;28;20412;-81
2023/01/20 10:33:11;;;;;;;69.30;32.05;;;;;;;;;;5069493;28;20429;-82
2023/01/20 10:35:38;;;;;;;62.23;31.13;;;;;;;;;;5084016;28;20419;-81
2023/01/20 10:38:07;;;;;;;67.63;31.13;;;;;;;;;;5085327;28;20451;-81
2023/01/20 10:40:52;;;;;;;78.07;33.38;;;;;;;;;;5115011;28;20487;-82
2023/01/20 10:43:18;;;;;;;67.85;31.48;;;;;;;;;;5069913;28;20422;-82
2023/01/20 10:45:44;;;;;;;66.85;32.22;;;;;;;;;;5090797;28;20722;-81
2023/01/20 10:48:40;;;;;;;60.70;29.42;;;;;;;;;;5110063;28;20833;-82
2023/01/20 10:51:11;;;;;;;59.80;27.80;;;;;;;;;;5046089;28;20454;-82
2023/01/20 10:53:37;;;;;;;61.45;26.83;;;;;;;;;;5072343;28;20501;-84
2023/01/20 10:56:08;;;;;;;54.72;26.60;;;;;;;;;;5069829;28;20410;-81
2023/01/20 10:58:36;;;;;;;57.88;26.42;;;;;;;;;;5076483;28;20458;-82
2023/01/20 11:01:08;;;;;;;50.97;24.92;;;;;;;;;;5070744;28;20442;-82
2023/01/20 11:03:40;;;;;;;50.42;26.98;;;;;;;;;;5077776;28;20927;-83
2023/01/20 11:06:06;;;;;;;51.37;25.90;;;;;;;;;;5119512;28;20486;-82
2023/01/20 11:08:33;;;;;;;68.70;26.15;;;;;;;;;;5123450;28;20437;-81
2023/01/20 11:11:00;;;;;;;50.00;24.60;;;;;;;;;;5089669;28;20410;-82
2023/01/20 11:13:26;;;;;;;44.43;22.90;;;;;;;;;;5101166;28;20429;-77
2023/01/20 11:15:59;;;;;;;44.72;23.58;;;;;;;;;;5071078;28;20765;-77
2023/01/20 11:18:27;;;;;;;47.63;24.98;;;;;;;;;;5120834;27;20951;-77
2023/01/20 11:20:53;;;;;;;47.78;24.65;;;;;;;;;;5073193;28;20496;-78
2023/01/20 11:23:25;;;;;;;118.07;30.00;;;;;;;;;;5070004;28;20815;-78
2023/01/20 11:25:59;;;;;;;49.08;25.80;;;;;;;;;;5071527;28;20418;-78
2023/01/20 11:28:25;;;;;;;46.13;23.25;;;;;;;;;;5084982;28;20433;-77
2023/01/20 11:30:53;;;;;;;46.60;24.40;;;;;;;;;;5089228;28;20390;-77
2023/01/20 11:33:21;;;;;;;45.22;25.85;;;;;;;;;;5102448;28;20766;-78
2023/01/20 11:36:26;;;;;;;68.30;27.15;;;;;;;;;;5073038;28;20417;-77
2023/01/20 11:38:54;;;;;;;45.20;23.73;;;;;;;;;;5042190;28;20438;-78
2023/01/20 11:41:22;;;;;;;49.17;25.93;;;;;;;;;;5048543;28;20426;-77
2023/01/20 11:43:49;;;;;;;48.67;24.08;;;;;;;;;;5046606;28;20430;-77
2023/01/20 11:46:21;;;;;;;48.70;24.98;;;;;;;;;;5091209;28;20456;-76
2023/01/20 11:48:50;;;;;;;52.42;24.58;;;;;;;;;;5073795;28;20414;-77
2023/01/20 11:51:24;;;;;;;186.90;35.43;;;;;;;;;;5089895;28;21021;-76
2023/01/20 11:54:10;;;;;;;48.13;25.15;;;;;;;;;;5076117;28;20441;-76
2023/01/20 11:56:41;;;;;;;52.40;25.37;;;;;;;;;;5087810;28;20982;-76
2023/01/20 11:59:37;;;;;;;47.88;23.90;;;;;;;;;;5092650;28;20441;-77
2023/01/20 12:02:03;;;;;;;48.63;25.33;;;;;;;;;;5065754;28;20426;-77
2023/01/20 12:04:43;;;;;;;93.85;27.20;;;;;;;;;;5089787;28;20404;-77
2023/01/20 12:07:19;;;;;;;45.60;24.70;;;;;;;;;;5082830;28;20428;-77
2023/01/20 12:09:48;;;;;;;48.95;24.83;;;;;;;;;;5105153;28;20428;-77
2023/01/20 12:12:26;;;;;;;44.63;23.30;;;;;;;;;;5087870;28;20414;-77
2023/01/20 12:14:57;;;;;;;45.97;23.77;;;;;;;;;;5072566;28;20422;-76
2023/01/20 12:17:32;;;;;;;49.10;24.00;;;;;;;;;;5092186;28;20421;-76
2023/01/20 12:20:13;;;;;;;45.35;22.55;;;;;;;;;;5090768;28;21090;-77
2023/01/20 12:22:40;;;;;;;41.38;23.25;;;;;;;;;;5061043;28;20408;-81
2023/01/20 12:25:23;;;;;;;44.05;22.13;;;;;;;;;;5088600;28;20444;-81
2023/01/20 12:27:52;;;;;;;44.17;23.38;;;;;;;;;;5071746;28;20459;-81
2023/01/20 12:30:40;;;;;;;66.90;26.05;;;;;;;;;;5077086;28;20464;-82
2023/01/20 12:33:11;;;;;;;42.38;25.48;;;;;;;;;;5088719;28;20776;-83
2023/01/20 12:35:41;;;;;;;47.63;23.10;;;;;;;;;;5126739;27;20460;-82
2023/01/20 12:38:08;;;;;;;49.85;25.95;;;;;;;;;;5085673;28;20441;-83
2023/01/20 12:40:46;;;;;;;44.95;23.83;;;;;;;;;;5069956;28;20531;-81
2023/01/20 12:43:32;;;;;;;45.47;25.40;;;;;;;;;;5100477;28;20429;-82
2023/01/20 12:45:58;;;;;;;59.47;28.52;;;;;;;;;;5091412;28;20417;-81
2023/01/20 12:48:50;;;;;;;48.58;25.17;;;;;;;;;;5085522;28;20453;-81
2023/01/20 12:51:35;;;;;;;46.65;25.10;;;;;;;;;;5074238;28;20964;-81
2023/01/20 12:54:20;;;;;;;47.63;24.35;;;;;;;;;;5087178;28;20413;-82
2023/01/20 12:56:46;;;;;;;49.25;24.67;;;;;;;;;;5072438;28;20418;-82
2023/01/20 12:59:12;;;;;;;52.63;26.30;;;;;;;;;;5076765;28;20420;-81
2023/01/20 13:01:39;;;;;;;47.33;23.43;;;;;;;;;;5107496;28;20470;-81
2023/01/20 13:04:18;;;;;;;51.08;26.60;;;;;;;;;;5090791;28;20498;-82
2023/01/20 13:07:03;;;;;;;51.95;26.08;;;;;;;;;;5081839;28;20972;-83
2023/01/20 13:09:32;;;;;;;49.25;25.45;;;;;;;;;;5085513;28;20909;-82
2023/01/20 13:12:10;;;;;;;51.42;25.88;;;;;;;;;;5103542;28;20894;-82
2023/01/20 13:14:47;;;;;;;48.25;28.08;;;;;;;;;;5089625;28;20910;-83
2023/01/20 13:17:36;;;;;;;47.40;25.67;;;;;;;;;;5096400;28;20422;-82
2023/01/20 13:20:03;;;;;;;48.00;26.17;;;;;;;;;;5104777;28;20414;-83
2023/01/20 13:22:30;;;;;;;49.60;26.98;;;;;;;;;;5089740;28;20454;-81
2023/01/20 13:24:57;;;;;;;47.13;24.95;;;;;;;;;;5087225;28;20417;-82
2023/01/20 13:27:32;;;;;;;52.78;25.17;;;;;;;;;;5079073;28;20508;-82
2023/01/20 13:29:59;;;;;;;48.73;25.70;;;;;;;;;;5074398;28;20861;-82
2023/01/20 13:32:30;;;;;;;47.33;25.77;;;;;;;;;;5078293;28;20443;-82
2023/01/20 13:34:57;;;;;;;49.85;23.58;;;;;;;;;;5125301;27;20421;-83
2023/01/20 13:37:23;;;;;;;51.28;24.80;;;;;;;;;;5068889;28;20469;-82
2023/01/20 13:39:50;;;;;;;55.50;27.35;;;;;;;;;;5083829;28;20423;-83
2023/01/20 13:42:38;;;;;;;65.57;28.17;;;1.40;99.90;;;;;;5109252;27;20854;-82
2023/01/20 13:45:13;;;;;;;51.75;26.67;;;;;;;;;;5089564;28;20420;-83
2023/01/20 13:47:52;;;;;;;49.08;25.58;;;;;;;;;;5115080;27;21287;-85
2023/01/20 13:50:23;;;;;;;44.35;22.27;;;;;;;;;;5089104;28;20452;-84
2023/01/20 13:52:49;;;;;;;45.20;23.95;;;;;;;;;;5084423;28;20434;-77
2023/01/20 13:55:35;;;;;;;78.90;27.00;;;;;;;;;;5074356;28;20830;-76
2023/01/20 13:58:01;;;;;;;43.25;23.55;;;;;;;;;;5077912;28;20420;-77
2023/01/20 14:00:27;;;;;;;48.17;23.50;;;;;;;;;;5069829;28;20519;-76
2023/01/20 14:02:53;;;;;;;43.75;23.52;;;;;;;;;;5099864;28;20422;-77
2023/01/20 14:05:21;;;;;;;45.72;23.52;;;;;;;;;;5088821;28;20517;-76
2023/01/20 14:07:47;;;;;;;45.10;23.00;;;;;;;;;;5069881;28;20978;-82
2023/01/20 14:10:13;;;;;;;45.08;23.90;;;;;;;;;;5105341;28;20410;-83
2023/01/20 14:12:40;;;;;;;47.22;24.33;;;;;;;;;;5102447;28;20437;-83
2023/01/20 14:15:06;;;;;;;44.95;24.23;;;;;;;;;;5114458;27;20432;-83
2023/01/20 14:17:32;;;;;;;46.10;24.75;;;;;;;;;;5076535;28;20421;-82
2023/01/20 14:19:58;;;;;;;48.80;24.13;;;;;;;;;;5114293;27;20489;-81
2023/01/20 14:22:24;;;;;;;46.75;24.17;;;;;;;;;;5071353;28;20418;-84
2023/01/20 14:24:51;;;;;;;44.72;23.90;;;;;;;;;;5117365;27;20975;-82
2023/01/20 14:27:28;;;;;;;46.33;23.30;;;;;;;;;;5089424;28;20422;-84
2023/01/20 14:30:00;;;;;;;44.53;23.48;;;;;;;;;;5089376;28;20467;-83
2023/01/20 14:32:27;;;;;;;43.58;23.40;;;;;;;;;;5071639;28;20909;-83
2023/01/20 14:34:54;;;;;;;43.55;23.00;;;;;;;;;;5087153;28;20921;-84
2023/01/20 14:37:23;;;;;;;48.13;23.95;;;;;;;;;;5068304;28;20905;-83
2023/01/20 14:39:50;;;;;;;43.90;23.33;;;;;;;;;;5113875;28;20493;-82
2023/01/20 14:42:20;;;;;;;48.03;23.65;;;;;;;;;;5112405;27;20421;-83